createdAt,value
2022-12-11T00:01:20.567Z,59.88
2022-12-11T00:03:48.748Z,60.10
2022-12-11T00:06:18.883Z,60.31
2022-12-11T00:08:46.604Z,60.15
2022-12-11T00:11:18.895Z,60.06
2022-12-11T00:13:47.285Z,60.28
2022-12-11T00:16:14.779Z,60.23
2022-12-11T00:18:42.495Z,60.17
2022-12-11T00:21:13.609Z,60.56
2022-12-11T00:23:41.207Z,60.02
2022-12-11T00:26:12.705Z,60.64
2022-12-11T00:28:39.909Z,60.32
2022-12-11T00:31:09.202Z,60.46
2022-12-11T00:33:36.283Z,60.05
2022-12-11T00:36:04.070Z,59.83
2022-12-11T00:38:31.212Z,60.07
2022-12-11T00:40:59.792Z,60.25
2022-12-11T00:43:27.331Z,60.07
2022-12-11T00:45:55.121Z,59.83
2022-12-11T00:48:22.469Z,59.97
2022-12-11T00:50:49.908Z,60.08
2022-12-11T00:53:17.267Z,60.35
2022-12-11T00:55:44.581Z,60.22
2022-12-11T00:58:12.688Z,60.05
2022-12-11T01:00:41.140Z,59.91
2022-12-11T01:03:08.499Z,59.75
2022-12-11T01:05:36.200Z,59.99
2022-12-11T01:08:03.868Z,59.71
2022-12-11T01:10:31.853Z,59.41
2022-12-11T01:13:06.031Z,59.33
2022-12-11T01:15:41.506Z,59.42
2022-12-11T01:18:14.385Z,59.25
2022-12-11T01:20:42.821Z,58.89
2022-12-11T01:23:13.182Z,59.26
2022-12-11T01:25:41.224Z,58.72
2022-12-11T01:28:09.054Z,58.77
2022-12-11T01:30:36.885Z,58.91
2022-12-11T01:33:04.162Z,58.40
2022-12-11T01:35:31.439Z,58.40
2022-12-11T01:37:59.867Z,58.63
2022-12-11T01:40:27.109Z,58.25
2022-12-11T01:42:54.478Z,58.31
2022-12-11T01:45:23.802Z,57.97
2022-12-11T01:47:58.676Z,57.78
2022-12-11T01:50:26.237Z,57.82
2022-12-11T01:52:53.907Z,57.75
2022-12-11T01:55:21.925Z,57.63
2022-12-11T01:57:51.119Z,58.02
2022-12-11T02:00:19.676Z,57.39
2022-12-11T02:02:46.919Z,57.61
2022-12-11T02:05:14.296Z,57.94
2022-12-11T02:07:50.709Z,58.04
2022-12-11T02:10:18.988Z,57.61
2022-12-11T02:12:58.105Z,57.62
2022-12-11T02:15:35.917Z,57.40
2022-12-11T02:18:29.024Z,57.56
2022-12-11T02:21:05.927Z,57.38
2022-12-11T02:23:53.268Z,56.77
2022-12-11T02:26:23.443Z,56.86
2022-12-11T02:28:58.507Z,56.86
2022-12-11T02:31:37.293Z,56.99
2022-12-11T02:34:30.946Z,57.11
2022-12-11T02:37:02.501Z,57.00
2022-12-11T02:39:31.506Z,57.15
2022-12-11T02:41:59.885Z,56.91
2022-12-11T02:44:30.830Z,56.86
2022-12-11T02:46:58.879Z,56.87
2022-12-11T02:49:28.501Z,56.57
2022-12-11T02:51:58.283Z,56.79
2022-12-11T02:54:32.151Z,56.55
2022-12-11T02:57:06.520Z,56.31
2022-12-11T02:59:41.102Z,56.69
2022-12-11T03:02:08.419Z,56.14
2022-12-11T03:04:36.644Z,56.23
2022-12-11T03:07:16.233Z,56.57
2022-12-11T03:09:45.761Z,56.29
2022-12-11T03:12:17.900Z,56.54
2022-12-11T03:14:45.656Z,56.74
2022-12-11T03:17:18.503Z,57.31
2022-12-11T03:19:51.699Z,57.37
2022-12-11T03:22:34.202Z,57.08
2022-12-11T03:25:07.289Z,56.97
2022-12-11T03:27:50.032Z,56.67
2022-12-11T03:30:19.772Z,56.37
2022-12-11T03:32:56.661Z,56.79
2022-12-11T03:35:31.117Z,56.99
2022-12-11T03:38:04.110Z,57.13
2022-12-11T03:40:34.324Z,57.28
2022-12-11T03:43:02.932Z,57.53
2022-12-11T03:45:30.696Z,57.50
2022-12-11T03:48:00.128Z,57.63
2022-12-11T03:50:31.208Z,57.58
2022-12-11T03:53:00.719Z,57.80
2022-12-11T03:55:29.852Z,57.59
2022-12-11T03:57:57.190Z,57.52
2022-12-11T04:00:24.992Z,57.47
2022-12-11T04:03:13.605Z,57.30
2022-12-11T04:05:50.198Z,57.33
2022-12-11T04:08:20.929Z,56.66
2022-12-11T04:10:48.741Z,56.57
2022-12-11T04:13:15.882Z,56.50
2022-12-11T04:15:43.108Z,56.26
2022-12-11T04:18:49.346Z,56.12
2022-12-11T04:21:39.493Z,55.99
2022-12-11T04:24:17.379Z,56.35
2022-12-11T04:26:46.839Z,56.07
2022-12-11T04:29:15.460Z,56.32
2022-12-11T04:31:45.938Z,56.55
2022-12-11T04:34:13.195Z,56.72
2022-12-11T04:36:40.396Z,56.66
2022-12-11T04:39:07.547Z,56.89
2022-12-11T04:41:35.809Z,56.52
2022-12-11T04:44:05.783Z,56.64
2022-12-11T04:46:33.846Z,56.32
2022-12-11T04:49:01.391Z,56.14
2022-12-11T04:51:29.071Z,55.47
2022-12-11T04:53:56.611Z,55.61
2022-12-11T04:56:23.736Z,55.25
2022-12-11T04:58:50.901Z,55.75
2022-12-11T05:01:21.691Z,55.59
2022-12-11T05:03:49.168Z,55.42
2022-12-11T05:06:17.323Z,55.51
2022-12-11T05:08:45.620Z,55.25
2022-12-11T05:11:15.453Z,55.94
2022-12-11T05:13:43.693Z,55.92
2022-12-11T05:16:13.627Z,56.22
2022-12-11T05:18:40.825Z,55.99
2022-12-11T05:21:10.790Z,55.90
2022-12-11T05:23:38.731Z,55.84
2022-12-11T05:26:09.533Z,55.74
2022-12-11T05:28:39.098Z,55.60
2022-12-11T05:31:18.505Z,56.10
2022-12-11T05:33:47.657Z,56.17
2022-12-11T05:36:28.579Z,56.12
2022-12-11T05:38:57.280Z,55.57
2022-12-11T05:41:27.499Z,55.00
2022-12-11T05:43:54.870Z,54.65
2022-12-11T05:46:27.108Z,55.27
2022-12-11T05:48:57.384Z,55.08
2022-12-11T05:51:25.483Z,55.64
2022-12-11T05:53:53.800Z,55.24
2022-12-11T05:56:26.838Z,55.20
2022-12-11T05:58:54.960Z,55.34
2022-12-11T06:01:26.630Z,55.20
2022-12-11T06:03:55.605Z,55.24
2022-12-11T06:06:23.624Z,54.97
2022-12-11T06:08:51.720Z,54.93
2022-12-11T06:11:23.975Z,54.78
2022-12-11T06:13:53.056Z,54.17
2022-12-11T06:16:21.190Z,54.51
2022-12-11T06:18:48.490Z,54.54
2022-12-11T06:21:24.624Z,54.58
2022-12-11T06:23:54.286Z,54.95
2022-12-11T06:26:22.451Z,55.18
2022-12-11T06:28:50.446Z,55.26
2022-12-11T06:31:18.755Z,55.53
2022-12-11T06:33:46.750Z,55.10
2022-12-11T06:36:17.134Z,54.89
2022-12-11T06:38:46.545Z,55.27
2022-12-11T06:41:13.815Z,55.67
2022-12-11T06:43:43.070Z,56.23
2022-12-11T06:46:13.923Z,56.09
2022-12-11T06:48:42.917Z,55.82
2022-12-11T06:51:15.454Z,55.38
2022-12-11T06:53:43.245Z,55.04
2022-12-11T06:56:14.052Z,54.99
2022-12-11T06:58:42.514Z,54.61
2022-12-11T07:01:24.350Z,54.96
2022-12-11T07:03:54.016Z,55.01
2022-12-11T07:06:21.718Z,54.84
2022-12-11T07:08:49.120Z,54.73
2022-12-11T07:11:17.991Z,55.21
2022-12-11T07:13:48.075Z,54.89
2022-12-11T07:16:17.201Z,55.04
2022-12-11T07:18:48.586Z,55.21
2022-12-11T07:21:16.293Z,55.14
2022-12-11T07:23:43.768Z,55.54
2022-12-11T07:26:13.919Z,55.18
2022-12-11T07:28:41.628Z,55.35
2022-12-11T07:31:11.165Z,55.56
2022-12-11T07:33:38.638Z,55.62
2022-12-11T07:36:07.733Z,55.82
2022-12-11T07:38:35.827Z,56.07
2022-12-11T07:41:05.616Z,55.84
2022-12-11T07:43:33.895Z,55.82
2022-12-11T07:46:06.915Z,55.99
2022-12-11T07:48:39.184Z,55.67
2022-12-11T07:51:12.403Z,55.82
2022-12-11T07:53:39.725Z,55.64
2022-12-11T07:56:07.680Z,55.40
2022-12-11T07:58:39.134Z,55.74
2022-12-11T08:01:10.726Z,55.76
2022-12-11T08:03:37.890Z,55.69
2022-12-11T08:06:05.571Z,56.10
2022-12-11T08:08:32.985Z,56.16
2022-12-11T08:11:12.547Z,56.28
2022-12-11T08:13:41.014Z,55.86
2022-12-11T08:16:10.389Z,56.14
2022-12-11T08:18:39.113Z,56.04
2022-12-11T08:21:07.873Z,56.06
2022-12-11T08:23:35.313Z,56.14
2022-12-11T08:26:04.565Z,56.33
2022-12-11T08:28:32.344Z,56.34
2022-12-11T08:31:00.872Z,56.48
2022-12-11T08:33:28.250Z,56.36
2022-12-11T08:35:56.050Z,56.08
2022-12-11T08:38:25.601Z,56.14
2022-12-11T08:40:52.925Z,55.76
2022-12-11T08:43:20.166Z,55.46
2022-12-11T08:45:47.417Z,55.07
2022-12-11T08:48:14.756Z,54.99
2022-12-11T08:50:43.069Z,54.87
2022-12-11T08:53:10.451Z,54.67
2022-12-11T08:55:37.904Z,54.67
2022-12-11T08:58:05.621Z,53.94
2022-12-11T09:00:33.181Z,53.68
2022-12-11T09:03:00.376Z,53.60
2022-12-11T09:05:27.474Z,53.69
2022-12-11T09:07:54.833Z,53.19
2022-12-11T09:10:22.176Z,52.90
2022-12-11T09:12:49.197Z,52.86
2022-12-11T09:15:16.476Z,53.31
2022-12-11T09:17:43.671Z,53.64
2022-12-11T09:20:11.480Z,53.50
2022-12-11T09:22:38.808Z,53.22
2022-12-11T09:25:06.652Z,52.93
2022-12-11T09:27:34.557Z,52.78
2022-12-11T09:30:02.028Z,52.49
2022-12-11T09:32:31.692Z,52.56
2022-12-11T09:34:58.795Z,52.62
2022-12-11T09:37:25.914Z,52.29
2022-12-11T09:39:53.197Z,52.33
2022-12-11T09:42:30.498Z,52.39
2022-12-11T09:45:02.050Z,51.88
2022-12-11T09:47:50.254Z,51.87
2022-12-11T09:50:28.145Z,51.58
2022-12-11T09:53:05.677Z,51.38
2022-12-11T09:55:44.857Z,51.43
2022-12-11T09:58:28.271Z,51.44
2022-12-11T10:01:07.706Z,50.58
2022-12-11T10:04:06.289Z,50.02
2022-12-11T10:07:07.116Z,50.19
2022-12-11T10:09:49.113Z,50.62
2022-12-11T10:12:28.295Z,50.35
2022-12-11T10:15:08.732Z,49.88
2022-12-11T10:17:38.622Z,50.45
2022-12-11T10:20:35.188Z,50.17
2022-12-11T10:23:06.594Z,50.08
2022-12-11T10:25:45.371Z,49.67
2022-12-11T10:28:18.081Z,50.79
2022-12-11T10:31:01.872Z,50.84
2022-12-11T10:33:49.278Z,50.63
2022-12-11T10:36:22.116Z,50.17
2022-12-11T10:38:50.405Z,50.63
2022-12-11T10:41:33.930Z,49.94
2022-12-11T10:44:02.042Z,50.21
2022-12-11T10:46:33.021Z,49.77
2022-12-11T10:49:01.506Z,49.86
2022-12-11T10:51:31.532Z,49.95
2022-12-11T10:54:07.362Z,50.25
2022-12-11T10:56:37.856Z,49.55
2022-12-11T10:59:05.366Z,50.52
2022-12-11T11:01:33.278Z,50.34
2022-12-11T11:04:06.750Z,50.80
2022-12-11T11:06:34.222Z,50.82
2022-12-11T11:09:02.382Z,50.24
2022-12-11T11:11:36.882Z,50.54
2022-12-11T11:14:17.142Z,50.38
2022-12-11T11:16:48.020Z,50.29
2022-12-11T11:19:21.854Z,50.20
2022-12-11T11:21:55.714Z,50.19
2022-12-11T11:24:31.511Z,50.26
2022-12-11T11:27:14.353Z,50.04
2022-12-11T11:29:43.538Z,50.64
2022-12-11T11:32:38.839Z,50.62
2022-12-11T11:35:12.584Z,50.23
2022-12-11T11:37:54.605Z,50.29
2022-12-11T11:40:38.136Z,49.47
2022-12-11T11:43:16.651Z,49.53
2022-12-11T11:46:18.608Z,49.73
2022-12-11T11:49:12.235Z,49.67
2022-12-11T11:52:09.053Z,49.68
2022-12-11T11:54:42.334Z,49.75
2022-12-11T11:57:33.046Z,49.23
2022-12-11T12:00:10.864Z,48.57
2022-12-11T12:02:42.330Z,49.30
2022-12-11T12:05:13.888Z,48.38
2022-12-11T12:07:48.205Z,48.88
2022-12-11T12:10:26.605Z,48.21
2022-12-11T12:13:48.225Z,47.91
2022-12-11T12:19:57.885Z,47.97
2022-12-11T12:23:00.605Z,48.53
2022-12-11T12:25:39.861Z,48.60
2022-12-11T12:28:16.202Z,48.51
2022-12-11T12:31:21.990Z,48.99
2022-12-11T12:34:07.981Z,49.40
2022-12-11T12:37:19.899Z,48.97
2022-12-11T12:40:02.718Z,48.51
2022-12-11T12:42:48.656Z,48.76
2022-12-11T12:45:15.997Z,48.81
2022-12-11T12:47:53.073Z,48.56
2022-12-11T12:50:27.161Z,48.72
2022-12-11T12:52:56.542Z,49.02
2022-12-11T12:55:29.681Z,49.31
2022-12-11T12:58:05.735Z,48.86
2022-12-11T13:00:32.807Z,49.02
2022-12-11T13:03:11.794Z,48.71
2022-12-11T13:05:46.289Z,48.77
2022-12-11T13:08:24.155Z,48.70
2022-12-11T13:11:01.082Z,48.28
2022-12-11T13:13:37.263Z,48.24
2022-12-11T13:16:16.718Z,47.29
2022-12-11T13:18:47.572Z,48.52
2022-12-11T13:21:32.838Z,48.05
2022-12-11T13:24:21.733Z,48.18
2022-12-11T13:26:50.576Z,48.75
2022-12-11T13:29:33.186Z,48.39
2022-12-11T13:32:05.178Z,48.33
2022-12-11T13:34:34.056Z,48.30
2022-12-11T13:37:04.088Z,48.46
2022-12-11T13:39:35.216Z,48.52
2022-12-11T13:42:06.293Z,48.24
2022-12-11T13:44:40.823Z,48.55
2022-12-11T13:47:14.376Z,48.71
2022-12-11T13:49:44.951Z,49.02
2022-12-11T13:52:21.928Z,48.60
2022-12-11T13:54:51.492Z,48.63
2022-12-11T13:57:23.260Z,48.27
2022-12-11T14:00:00.265Z,48.70
2022-12-11T14:02:35.655Z,48.41
2022-12-11T14:05:07.271Z,48.38
2022-12-11T14:07:47.224Z,48.61
2022-12-11T14:10:17.274Z,48.72
2022-12-11T14:12:56.789Z,48.57
2022-12-11T14:15:25.017Z,48.97
2022-12-11T14:17:53.036Z,48.99
2022-12-11T14:20:25.349Z,48.75
2022-12-11T14:22:52.665Z,48.94
2022-12-11T14:25:26.261Z,49.57
2022-12-11T14:27:55.288Z,49.34
2022-12-11T14:30:30.173Z,49.21
2022-12-11T14:33:05.486Z,48.83
2022-12-11T14:35:42.085Z,49.58
2022-12-11T14:38:29.511Z,49.46
2022-12-11T14:41:05.562Z,49.03
2022-12-11T14:43:38.629Z,49.12
2022-12-11T14:46:11.710Z,48.73
2022-12-11T14:48:53.865Z,48.96
2022-12-11T14:51:29.206Z,48.71
2022-12-11T14:53:56.722Z,48.88
2022-12-11T14:56:28.091Z,48.35
2022-12-11T14:59:05.432Z,48.52
2022-12-11T15:01:35.448Z,48.70
2022-12-11T15:04:20.104Z,48.78
2022-12-11T15:06:49.165Z,48.91
2022-12-11T15:09:43.556Z,48.62
2022-12-11T15:12:19.851Z,49.09
2022-12-11T15:14:53.192Z,49.09
2022-12-11T15:17:21.938Z,49.27
2022-12-11T15:19:55.562Z,48.73
2022-12-11T15:22:27.335Z,49.01
2022-12-11T15:24:55.061Z,49.14
2022-12-11T15:27:39.957Z,48.74
2022-12-11T15:30:26.608Z,48.73
2022-12-11T15:33:12.273Z,48.93
2022-12-11T15:35:52.322Z,49.13
2022-12-11T15:38:35.868Z,48.83
2022-12-11T15:41:04.406Z,48.85
2022-12-11T15:43:36.249Z,48.79
2022-12-11T15:46:04.951Z,49.03
2022-12-11T15:48:32.412Z,48.42
2022-12-11T15:50:59.528Z,48.41
2022-12-11T15:53:26.815Z,48.73
2022-12-11T15:55:54.765Z,48.72
2022-12-11T15:58:25.910Z,49.08
2022-12-11T16:00:53.990Z,49.15
2022-12-11T16:03:23.703Z,49.61
2022-12-11T16:05:52.522Z,49.26
2022-12-11T16:08:23.688Z,49.45
2022-12-11T16:10:53.456Z,49.13
2022-12-11T16:13:20.792Z,49.48
2022-12-11T16:15:49.682Z,49.41
2022-12-11T16:18:21.957Z,50.19
2022-12-11T16:20:49.974Z,49.81
2022-12-11T16:23:17.653Z,49.85
2022-12-11T16:25:46.769Z,49.79
2022-12-11T16:28:15.916Z,49.61
2022-12-11T16:30:43.706Z,50.12
2022-12-11T16:33:13.179Z,49.78
2022-12-11T16:35:42.999Z,49.81
2022-12-11T16:38:11.877Z,49.15
2022-12-11T16:40:39.256Z,49.28
2022-12-11T16:43:06.932Z,49.85
2022-12-11T16:45:34.250Z,49.60
2022-12-11T16:48:05.205Z,49.64
2022-12-11T16:50:32.568Z,49.88
2022-12-11T16:52:59.759Z,50.05
2022-12-11T16:55:26.951Z,49.72
2022-12-11T16:57:55.284Z,49.57
2022-12-11T17:00:27.191Z,49.54
2022-12-11T17:02:54.308Z,49.89
2022-12-11T17:05:24.992Z,49.63
2022-12-11T17:07:52.466Z,49.54
2022-12-11T17:10:19.610Z,50.09
2022-12-11T17:12:46.802Z,49.92
2022-12-11T17:15:14.107Z,49.61
2022-12-11T17:17:43.320Z,49.75
2022-12-11T17:20:11.539Z,49.85
2022-12-11T17:22:38.949Z,49.38
2022-12-11T17:25:07.089Z,49.56
2022-12-11T17:27:34.712Z,49.76
2022-12-11T17:30:01.972Z,49.76
2022-12-11T17:32:30.489Z,50.04
2022-12-11T17:34:57.561Z,49.57
2022-12-11T17:37:24.858Z,49.71
2022-12-11T17:39:51.967Z,49.83
2022-12-11T17:42:19.144Z,50.20
2022-12-11T17:44:46.273Z,50.09
2022-12-11T17:47:13.574Z,50.44
2022-12-11T17:49:40.764Z,50.46
2022-12-11T17:52:08.300Z,50.71
2022-12-11T17:54:35.470Z,50.28
2022-12-11T17:57:02.559Z,50.05
2022-12-11T17:59:31.587Z,50.09
2022-12-11T18:01:59.281Z,50.15
2022-12-11T18:04:26.485Z,50.16
2022-12-11T18:06:54.096Z,49.85
2022-12-11T18:09:21.373Z,49.86
2022-12-11T18:11:48.458Z,50.00
2022-12-11T18:14:17.621Z,50.36
2022-12-11T18:16:45.111Z,50.23
2022-12-11T18:19:13.022Z,50.13
2022-12-11T18:21:42.924Z,50.10
2022-12-11T18:24:10.607Z,50.38
2022-12-11T18:26:37.860Z,50.47
2022-12-11T18:29:05.474Z,50.34
2022-12-11T18:31:36.301Z,50.36
2022-12-11T18:34:07.014Z,50.79
2022-12-11T18:36:35.013Z,50.92
2022-12-11T18:39:03.399Z,50.70
2022-12-11T18:41:30.558Z,50.96
2022-12-11T18:44:05.185Z,51.08
2022-12-11T18:46:35.491Z,50.74
2022-12-11T18:49:02.862Z,50.86
2022-12-11T18:51:30.585Z,50.91
2022-12-11T18:53:59.269Z,51.03
2022-12-11T18:56:26.913Z,51.49
2022-12-11T18:58:54.290Z,51.50
2022-12-11T19:01:25.553Z,51.61
2022-12-11T19:04:05.321Z,52.12
2022-12-11T19:06:35.805Z,51.56
2022-12-11T19:09:05.458Z,51.74
2022-12-11T19:11:34.744Z,51.42
2022-12-11T19:14:02.465Z,51.41
2022-12-11T19:16:35.340Z,50.86
2022-12-11T19:19:05.788Z,50.80
2022-12-11T19:21:35.554Z,50.45
2022-12-11T19:24:02.754Z,50.62
2022-12-11T19:26:31.053Z,50.16
2022-12-11T19:29:00.680Z,50.24
2022-12-11T19:31:30.126Z,49.98
2022-12-11T19:33:58.256Z,50.40
2022-12-11T19:36:27.617Z,50.60
2022-12-11T19:39:01.153Z,50.45
2022-12-11T19:41:29.978Z,50.87
2022-12-11T19:43:58.803Z,51.17
2022-12-11T19:46:27.847Z,51.72
2022-12-11T19:49:00.009Z,51.62
2022-12-11T19:51:33.988Z,51.27
2022-12-11T19:54:05.047Z,51.17
2022-12-11T19:56:33.171Z,51.75
2022-12-11T19:59:03.019Z,52.56
2022-12-11T20:01:33.004Z,51.97
2022-12-11T20:04:08.008Z,52.23
2022-12-11T20:06:36.368Z,51.67
2022-12-11T20:09:10.923Z,51.82
2022-12-11T20:11:44.838Z,51.97
2022-12-11T20:14:22.428Z,51.25
2022-12-11T20:19:38.033Z,51.41
2022-12-11T20:22:05.762Z,51.63
2022-12-11T20:24:34.241Z,51.67
2022-12-11T20:27:01.681Z,51.12
2022-12-11T20:29:28.910Z,50.90
2022-12-11T20:31:59.940Z,50.72
2022-12-11T20:34:28.068Z,50.91
2022-12-11T20:36:56.398Z,50.67
2022-12-11T20:39:23.795Z,50.20
2022-12-11T20:41:51.506Z,50.30
2022-12-11T20:44:20.221Z,50.37
2022-12-11T20:46:47.636Z,49.98
2022-12-11T20:49:14.843Z,50.39
2022-12-11T20:51:42.160Z,50.75
2022-12-11T20:54:09.843Z,50.41
2022-12-11T20:56:38.105Z,50.36
2022-12-11T20:59:05.314Z,50.37
2022-12-11T21:01:33.691Z,50.10
2022-12-11T21:04:01.144Z,50.26
2022-12-11T21:06:32.330Z,50.22
2022-12-11T21:09:01.713Z,50.26
2022-12-11T21:11:29.246Z,50.54
2022-12-11T21:13:56.793Z,50.42
2022-12-11T21:16:24.613Z,49.75
2022-12-11T21:18:52.133Z,49.63
2022-12-11T21:21:20.248Z,50.16
2022-12-11T21:23:48.458Z,50.24
2022-12-11T21:26:15.739Z,49.55
2022-12-11T21:28:43.926Z,49.81
2022-12-11T21:31:14.497Z,49.97
2022-12-11T21:33:41.967Z,49.81
2022-12-11T21:36:11.788Z,49.83
2022-12-11T21:38:41.328Z,50.03
2022-12-11T21:41:17.386Z,49.99
2022-12-11T21:44:56.604Z,50.15
2022-12-11T21:46:33.551Z,50.04
2022-12-11T21:49:00.757Z,50.16
2022-12-11T21:51:36.484Z,49.85
2022-12-11T21:54:06.948Z,49.64
2022-12-11T21:56:34.610Z,50.51
2022-12-11T21:59:02.464Z,50.41
2022-12-11T22:01:33.796Z,50.64
2022-12-11T22:04:01.829Z,50.76
2022-12-11T22:06:29.082Z,50.89
2022-12-11T22:08:56.304Z,51.05
2022-12-11T22:11:27.609Z,51.17
2022-12-11T22:13:54.981Z,51.38
2022-12-11T22:16:22.705Z,51.06
2022-12-11T22:18:49.900Z,50.71
2022-12-11T22:21:17.432Z,50.76
2022-12-11T22:23:44.939Z,50.57
2022-12-11T22:26:17.560Z,50.32
2022-12-11T22:28:44.815Z,50.33
2022-12-11T22:31:13.775Z,50.54
2022-12-11T22:33:41.737Z,50.88
2022-12-11T22:36:10.628Z,51.14
2022-12-11T22:38:38.320Z,51.82
2022-12-11T22:41:20.528Z,51.69
2022-12-11T22:43:49.399Z,51.28
2022-12-11T22:46:18.094Z,51.77
2022-12-11T22:48:45.667Z,51.29
2022-12-11T22:51:13.102Z,50.75
2022-12-11T22:53:40.498Z,51.30
2022-12-11T22:56:09.321Z,51.16
2022-12-11T22:58:37.146Z,50.59
2022-12-11T23:01:12.244Z,50.57
2022-12-11T23:03:39.826Z,50.80
2022-12-11T23:06:11.551Z,50.97
2022-12-11T23:08:40.610Z,51.32
2022-12-11T23:11:17.453Z,51.00
2022-12-11T23:13:44.583Z,51.16
2022-12-11T23:16:12.559Z,50.85
2022-12-11T23:18:39.952Z,50.67
2022-12-11T23:21:08.351Z,50.95
2022-12-11T23:23:35.522Z,51.05
2022-12-11T23:26:02.803Z,50.94
2022-12-11T23:28:30.237Z,51.24
2022-12-11T23:30:57.432Z,51.54
2022-12-11T23:33:26.269Z,51.73
2022-12-11T23:35:54.947Z,51.87
2022-12-11T23:38:22.029Z,52.02
2022-12-11T23:40:49.810Z,51.92
2022-12-11T23:43:17.679Z,52.24
2022-12-11T23:45:45.846Z,52.09
2022-12-11T23:48:14.195Z,52.47
2022-12-11T23:50:43.337Z,52.30
2022-12-11T23:53:11.446Z,51.96
2022-12-11T23:55:40.514Z,52.39
2022-12-11T23:58:08.167Z,52.82
